Ballymahon, Ireland
Current Conditions -  °F | °C
As of 6:00 AM on Friday 31 Oct 2014 (Local Time) from EIKN Reporting Station
Light Rain Light Rain  
Wind Chill: 14°   Ceiling: 600
Heat Index: 14°   Visibility: 6mi
Dew Point: 14°   Wind: 16mph
Humidity: 100%   Direction: 160°SSE
Pressure: 29.56"   Gusts: NA
Location:  53.56°N, 7.77°W
Report Text: EIKN 310600Z 16014KT 130V190 9999 -RA BKN006 OVC014 14/14 Q1001 NOSIG
Loading
Personal Weather Stations






























Interactive Weather Map
Tropical Storm Tracking
New forecast layout! Learn more

10-Day Weather Forecast

Advertisements
Track Severe Weather on mobile